Lincoln Park, NJ

09:51 PM EDT on Agosto 31, 2016 (GMT -0400)
Broad Acres | | Change Station

Elev 175 ft 40.93 °N, 74.29 °W | Updated 28 seconds ago

Partly Cloudy
Anubrado
75.2 °F
Feels Like 74 °F
N
0.0
Vento Variable Vento from Norte
Gusts 0.0 mph

Hoxe
High -- | Low -- °F
--% Chance of Precip.
Yesterday
High -- | Low -- °F
Precip. -- pol
Presión 29.90 pol
Visibilidade 10.0 Millas
Nubes Few 6500 ft
Few 11000 ft
Sensación de Calor 74 °F
Nivel de Rosada 72 °F
Humidade 91%
Rainfall 0.00 pol
Fondo da neve Not available.
6:23 AM 7:30 PM
Waning Crescent, 0% visible
METAR KCDW 010053Z 00000KT 10SM FEW065 FEW110 27/20 A2989 RMK AO2 SLP123 T02720200
Presión 29.90 pol
Visibilidade 10.0 Millas
Nubes Few 6500 ft
Few 11000 ft
Sensación de Calor 74 °F
Nivel de Rosada 72 °F
Humidade 91%
Rainfall 0.00 pol
Fondo da neve Not available.
6:23 AM 7:30 PM
Waning Crescent, 0% visible
METAR KCDW 010053Z 00000KT 10SM FEW065 FEW110 27/20 A2989 RMK AO2 SLP123 T02720200

10-Day Weather Forecast

Almanac

Astronomía

Aug. 31, 2016 Rise Set
Tempo actual
Crepúsculo civil
Crepúsculo náutico
Crepúsculo astronómico
Lúa
Lonxitude da luz visíbel
Length of Day
Tomorrow will be .
, % of the Moon is Illuminated

Today's Extremes

State Highs State Lows

Community

WunderPhotos

Upload Photos

1,936,266 photos uploaded!

WunderBlog® & News

Nearby

Air Quality

  Air Quality AQ Index Pollutant
Not available.

Snow Depth

Station Depth Elevation

Earthquake Activity

Cidade Distance Mag. Time & Date
Minimum magnitude displayed is 2.5.

Coastal Water Temperatures

Lugar Temperatura

Stations

Nearby Weather Stations

Station Location Temp Vento Xeado Nivel de Rosada Humidade Vento Precip. Elev Actualización Type
                   

Watches & Warnings

There are currently no watches in effect.